Time;durP1;ratioP1;P1;durP2;ratioP2;P2;SDS_P1;SDS_P2;PMS_P1;PMS_P2;Temp;Humidity;BMP_temperature;BMP_pressure;BME280_temperature;BME280_humidity;BME280_pressure;Samples;Min_cycle;Max_cycle;Signal;HPM_P1;HPM_P2
2022/11/03 00:01:08;;;;;;;6.45;1.25;;;9.80;99.90;;;;;;6129247;19;19911;-70
2022/11/03 00:03:12;;;;;;;4.95;1.17;;;10.00;99.90;;;;;;6130189;19;19974;-70
2022/11/03 00:07:32;;;;;;;5.55;1.00;;;10.20;99.90;;;;;;6129290;19;19941;-70
2022/11/03 00:09:39;;;;;;;8.68;1.17;;;10.10;99.90;;;;;;6129526;19;19921;-70
2022/11/03 00:11:44;;;;;;;8.43;1.30;;;10.00;99.90;;;;;;6128610;19;19929;-70
2022/11/03 00:13:49;;;;;;;6.70;1.23;;;;;;;;;;6128542;19;19937;-70
2022/11/03 00:15:52;;;;;;;10.20;1.25;;;10.00;99.90;;;;;;6129542;19;19914;-70
2022/11/03 00:17:56;;;;;;;10.68;1.55;;;10.00;99.90;;;;;;6128783;19;19923;-70
2022/11/03 00:20:00;;;;;;;10.15;1.40;;;10.30;99.90;;;;;;6126559;19;19919;-70
2022/11/03 00:22:04;;;;;;;5.72;1.25;;;10.50;99.90;;;;;;6128050;19;20358;-70
2022/11/03 00:24:08;;;;;;;12.40;1.55;;;10.10;99.90;;;;;;6131903;19;20291;-70
2022/11/03 00:26:17;;;;;;;6.95;1.80;;;10.20;99.90;;;;;;6128738;19;19911;-69
2022/11/03 00:28:21;;;;;;;4.25;0.90;;;;;;;;;;6128834;19;19938;-70
2022/11/03 00:30:25;;;;;;;7.35;1.42;;;;;;;;;;6128412;19;19930;-70
2022/11/03 00:32:29;;;;;;;4.43;1.13;;;;;;;;;;6127074;19;19918;-70
2022/11/03 00:34:33;;;;;;;6.80;1.00;;;10.20;99.90;;;;;;6128431;19;19914;-70
2022/11/03 00:36:38;;;;;;;6.15;1.30;;;10.20;99.90;;;;;;6128749;19;19919;-70
2022/11/03 00:38:42;;;;;;;8.65;1.45;;;10.20;99.90;;;;;;6131150;19;19915;-70
2022/11/03 00:40:46;;;;;;;5.72;1.30;;;;;;;;;;6129208;19;19918;-70
2022/11/03 00:42:53;;;;;;;4.50;1.23;;;10.30;99.90;;;;;;6127044;19;19969;-70
2022/11/03 00:44:57;;;;;;;10.25;2.05;;;10.20;99.90;;;;;;6129384;19;19914;-70
2022/11/03 00:47:01;;;;;;;5.82;0.88;;;10.20;99.90;;;;;;6125364;19;19919;-70
2022/11/03 00:49:06;;;;;;;5.82;1.75;;;10.30;99.90;;;;;;6128563;19;19914;-70
2022/11/03 00:51:11;;;;;;;7.03;1.50;;;10.40;99.90;;;;;;6128105;19;19938;-70
2022/11/03 00:53:15;;;;;;;8.27;1.27;;;10.90;99.90;;;;;;6128345;19;19915;-70
2022/11/03 00:55:19;;;;;;;8.20;1.10;;;10.20;99.90;;;;;;6130515;19;19915;-70
2022/11/03 00:57:23;;;;;;;4.40;1.30;;;10.20;99.90;;;;;;6131919;19;19942;-70
2022/11/03 00:59:29;;;;;;;6.70;1.38;;;10.30;99.90;;;;;;6128350;19;19914;-70
2022/11/03 01:01:35;;;;;;;7.90;1.20;;;10.20;99.90;;;;;;6128436;19;20272;-70
2022/11/03 01:03:40;;;;;;;4.65;1.02;;;10.20;99.90;;;;;;6127738;19;20240;-69
2022/11/03 01:07:59;;;;;;;8.15;1.40;;;;;;;;;;6128006;19;19970;-70
2022/11/03 01:10:03;;;;;;;9.68;1.85;;;10.20;99.90;;;;;;6128097;19;19914;-70
2022/11/03 01:12:06;;;;;;;5.40;1.45;;;10.10;99.90;;;;;;6130109;19;19933;-70
2022/11/03 01:14:12;;;;;;;10.30;1.15;;;9.80;99.90;;;;;;6131313;19;19934;-70
2022/11/03 01:16:19;;;;;;;7.75;1.40;;;10.00;99.90;;;;;;6127566;19;20328;-70
2022/11/03 01:18:23;;;;;;;7.30;1.38;;;;;;;;;;6129263;19;19917;-71
2022/11/03 01:20:26;;;;;;;6.03;1.45;;;10.00;99.90;;;;;;6126686;19;19918;-70
2022/11/03 01:22:31;;;;;;;9.70;1.42;;;10.20;99.90;;;;;;6127755;19;19926;-70
2022/11/03 01:24:36;;;;;;;11.35;1.52;;;9.90;99.90;;;;;;6126996;19;19918;-70
2022/11/03 01:26:40;;;;;;;6.63;0.93;;;10.10;99.90;;;;;;6127468;19;19938;-70
2022/11/03 01:28:46;;;;;;;7.03;1.23;;;9.90;99.90;;;;;;6128875;19;20280;-69
2022/11/03 01:30:50;;;;;;;9.35;1.77;;;10.00;99.90;;;;;;6130015;19;19915;-69
2022/11/03 01:32:56;;;;;;;5.18;1.00;;;9.90;99.90;;;;;;6125798;19;19938;-69
2022/11/03 01:35:00;;;;;;;8.18;1.20;;;10.80;99.90;;;;;;6127275;19;19919;-69
2022/11/03 01:37:04;;;;;;;13.90;2.15;;;9.80;99.90;;;;;;6127239;19;20354;-70
2022/11/03 01:39:08;;;;;;;10.13;1.88;;;;;;;;;;6126654;19;20327;-69
2022/11/03 01:41:15;;;;;;;3.97;1.88;;;9.90;99.90;;;;;;6127538;19;19927;-69
2022/11/03 01:43:20;;;;;;;7.28;1.88;;;9.70;99.90;;;;;;6127864;19;20350;-69
2022/11/03 01:45:24;;;;;;;8.02;1.38;;;9.80;99.90;;;;;;6130701;19;19941;-69
2022/11/03 01:47:30;;;;;;;8.13;1.20;;;9.70;99.90;;;;;;6128749;19;19915;-69
2022/11/03 01:49:41;;;;;;;7.60;1.40;;;9.60;99.90;;;;;;6126879;19;19915;-69
2022/11/03 01:51:49;;;;;;;3.03;1.00;;;9.70;99.90;;;;;;6126855;19;19919;-69
2022/11/03 01:53:56;;;;;;;5.18;1.85;;;9.70;99.90;;;;;;6128405;19;19941;-69
2022/11/03 01:56:01;;;;;;;3.28;1.08;;;9.40;99.90;;;;;;6127200;19;19915;-70
2022/11/03 01:58:08;;;;;;;7.38;1.58;;;9.70;99.90;;;;;;6131637;19;19919;-70
2022/11/03 02:00:14;;;;;;;12.15;1.80;;;9.40;99.90;;;;;;6137519;19;19918;-70
2022/11/03 02:02:18;;;;;;;6.10;1.15;;;;;;;;;;6141236;19;19918;-69
2022/11/03 02:04:31;;;;;;;6.70;1.48;;;9.30;99.90;;;;;;6140350;19;20526;-70
2022/11/03 02:06:39;;;;;;;11.13;1.90;;;9.40;99.90;;;;;;6138735;19;19915;-70
2022/11/03 02:08:49;;;;;;;9.40;2.17;;;9.20;99.90;;;;;;6139105;19;19953;-70
2022/11/03 02:10:53;;;;;;;9.02;2.00;;;9.40;99.90;;;;;;6138198;19;20345;-70
2022/11/03 02:12:57;;;;;;;4.85;1.02;;;9.40;99.90;;;;;;6139754;19;19946;-70
2022/11/03 02:15:07;;;;;;;3.65;1.10;;;9.40;99.90;;;;;;6140896;19;19945;-70
2022/11/03 02:17:14;;;;;;;8.23;2.08;;;9.20;99.90;;;;;;6138009;19;20260;-69
2022/11/03 02:19:26;;;;;;;5.40;1.40;;;9.40;99.90;;;;;;6139746;19;19926;-70
2022/11/03 02:21:36;;;;;;;8.00;1.25;;;9.60;99.90;;;;;;6139614;19;19934;-70
2022/11/03 02:23:48;;;;;;;7.03;2.33;;;9.50;99.90;;;;;;6136485;19;19982;-70
2022/11/03 02:25:56;;;;;;;8.50;1.33;;;9.50;99.90;;;;;;6138223;19;19919;-70
2022/11/03 02:28:00;;;;;;;10.70;1.65;;;10.00;99.90;;;;;;6137575;19;19922;-69
2022/11/03 02:30:04;;;;;;;6.43;1.27;;;9.40;99.90;;;;;;6138005;19;19910;-70
2022/11/03 02:32:17;;;;;;;7.43;1.60;;;9.50;99.90;;;;;;6137498;19;19919;-70
2022/11/03 02:34:28;;;;;;;6.30;1.52;;;9.40;99.90;;;;;;6137533;19;20003;-70
2022/11/03 02:36:38;;;;;;;6.32;1.25;;;9.60;99.90;;;;;;6140631;19;19950;-70
2022/11/03 02:38:49;;;;;;;7.72;1.38;;;9.40;99.90;;;;;;6139523;19;19938;-70
2022/11/03 02:40:57;;;;;;;11.05;1.58;;;9.60;99.90;;;;;;6135970;19;19918;-70
2022/11/03 02:43:03;;;;;;;6.63;1.60;;;9.60;99.90;;;;;;6137457;19;19926;-70
2022/11/03 02:45:10;;;;;;;7.30;1.92;;;9.50;99.90;;;;;;6140313;19;19942;-70
2022/11/03 02:47:16;;;;;;;8.10;1.40;;;9.60;99.90;;;;;;6137376;19;19915;-70
2022/11/03 02:49:20;;;;;;;9.40;1.80;;;10.20;99.90;;;;;;6137257;19;19918;-70
2022/11/03 02:51:24;;;;;;;7.97;1.23;;;9.70;99.90;;;;;;6137253;19;19923;-70
2022/11/03 02:53:30;;;;;;;6.38;1.45;;;9.50;99.90;;;;;;6138073;19;19941;-70
2022/11/03 02:55:38;;;;;;;5.80;1.13;;;9.70;99.90;;;;;;6138399;19;20328;-70
2022/11/03 02:57:50;;;;;;;6.45;0.98;;;9.20;99.90;;;;;;6137525;19;19942;-70
2022/11/03 03:00:00;;;;;;;6.38;1.33;;;9.70;99.90;;;;;;6136968;19;19974;-70
2022/11/03 03:02:09;;;;;;;6.93;1.83;;;9.80;99.90;;;;;;6136988;19;19910;-70
2022/11/03 03:04:14;;;;;;;3.75;1.88;;;9.80;99.90;;;;;;6134877;19;19942;-70
2022/11/03 03:06:24;;;;;;;7.55;1.50;;;9.60;99.90;;;;;;6137017;19;19910;-70
2022/11/03 03:08:29;;;;;;;9.23;2.35;;;9.60;99.90;;;;;;6136628;19;20481;-70
2022/11/03 03:10:36;;;;;;;6.53;1.40;;;9.80;99.90;;;;;;6129995;19;19915;-70
2022/11/03 03:12:47;;;;;;;11.65;2.20;;;9.50;99.90;;;;;;6132568;19;19919;-69
2022/11/03 03:14:52;;;;;;;6.47;1.50;;;9.60;99.90;;;;;;6131804;19;19911;-70
2022/11/03 03:17:02;;;;;;;8.73;1.60;;;9.60;99.90;;;;;;6129748;19;19926;-70
2022/11/03 03:19:14;;;;;;;8.00;1.90;;;9.40;99.90;;;;;;6134100;19;19926;-70
2022/11/03 03:21:22;;;;;;;7.15;1.20;;;9.60;99.90;;;;;;6128445;19;19919;-70
2022/11/03 03:23:31;;;;;;;9.00;1.38;;;9.50;99.90;;;;;;6130241;19;19925;-70
2022/11/03 03:25:40;;;;;;;8.30;1.88;;;9.70;99.90;;;;;;6129919;19;19915;-70
2022/11/03 03:27:51;;;;;;;5.97;1.35;;;9.90;99.90;;;;;;6131728;19;19938;-70
2022/11/03 03:29:59;;;;;;;6.15;1.27;;;9.40;99.90;;;;;;6132798;19;20355;-70
2022/11/03 03:32:08;;;;;;;5.07;2.95;;;9.40;99.90;;;;;;6130111;19;19915;-70
2022/11/03 03:34:12;;;;;;;;;;;9.60;99.90;;;;;;6131995;19;19925;-70
2022/11/03 03:36:19;;;;;;;6.90;1.50;;;10.00;99.90;;;;;;6132630;19;20344;-69
2022/11/03 03:38:26;;;;;;;7.68;1.50;;;9.40;99.90;;;;;;6130019;19;19938;-70
2022/11/03 03:40:35;;;;;;;7.95;1.50;;;9.70;99.90;;;;;;6129112;19;20450;-70
2022/11/03 03:42:39;;;;;;;;;;;10.20;99.90;;;;;;6132169;19;19910;-70
2022/11/03 03:44:47;;;;;;;8.45;1.73;;;10.00;99.90;;;;;;6131461;19;20311;-69
2022/11/03 03:46:57;;;;;;;7.63;1.60;;;9.40;99.90;;;;;;6132239;19;19974;-69
2022/11/03 03:49:01;;;;;;;6.63;1.77;;;9.00;99.90;;;;;;6130089;19;19919;-70
2022/11/03 03:51:06;;;;;;;8.52;1.00;;;9.70;99.90;;;;;;6129736;19;20459;-69
2022/11/03 03:53:13;;;;;;;4.57;1.23;;;9.10;99.90;;;;;;6129528;19;19950;-69
2022/11/03 03:55:22;;;;;;;7.38;1.75;;;9.40;99.90;;;;;;6129286;19;19953;-70
2022/11/03 03:57:27;;;;;;;7.38;1.38;;;9.30;99.90;;;;;;6129527;19;19919;-70
2022/11/03 03:59:31;;;;;;;6.90;1.92;;;9.50;99.90;;;;;;6132559;19;19953;-70
2022/11/03 04:01:38;;;;;;;8.05;1.25;;;9.50;99.90;;;;;;6128997;19;19934;-70
2022/11/03 04:03:42;;;;;;;4.68;1.25;;;9.20;99.90;;;;;;6129845;19;19926;-70
2022/11/03 04:05:46;;;;;;;9.13;2.13;;;9.50;99.90;;;;;;6129364;19;19938;-70
2022/11/03 04:07:50;;;;;;;4.53;0.98;;;;;;;;;;6131781;19;19907;-70
2022/11/03 04:09:54;;;;;;;5.57;1.85;;;9.80;99.90;;;;;;6129617;19;19911;-70
2022/11/03 04:23:24;;;;;;;5.68;1.13;;;9.20;99.90;;;;;;6130224;19;19928;-71
2022/11/03 04:25:28;;;;;;;9.73;1.17;;;;;;;;;;6129471;19;20367;-70
2022/11/03 04:27:34;;;;;;;5.93;1.58;;;8.70;99.90;;;;;;6130743;19;20367;-71
2022/11/03 04:29:38;;;;;;;11.43;1.52;;;;;;;;;;6129713;19;20335;-71
2022/11/03 04:31:42;;;;;;;7.90;1.55;;;9.20;99.90;;;;;;6127842;19;19919;-71
2022/11/03 04:33:46;;;;;;;3.50;1.15;;;9.20;99.90;;;;;;6128809;19;19934;-70
2022/11/03 04:35:54;;;;;;;6.25;0.88;;;9.30;99.90;;;;;;6130619;19;19927;-71
2022/11/03 04:38:02;;;;;;;7.40;1.25;;;9.20;99.90;;;;;;6131578;19;19945;-71
2022/11/03 04:40:16;;;;;;;6.40;1.38;;;9.40;99.90;;;;;;6131027;19;19914;-71
2022/11/03 04:42:23;;;;;;;5.88;1.33;;;9.00;99.90;;;;;;6128609;19;19915;-71
2022/11/03 04:44:26;;;;;;;4.57;1.15;;;9.50;99.90;;;;;;6128608;19;19914;-71
2022/11/03 04:46:32;;;;;;;5.07;1.30;;;9.30;99.90;;;;;;6128168;19;19915;-71
2022/11/03 04:48:36;;;;;;;10.80;1.85;;;9.00;99.90;;;;;;6128494;19;19915;-71
2022/11/03 04:50:40;;;;;;;8.40;1.67;;;;;;;;;;6128750;19;20322;-71
2022/11/03 04:52:47;;;;;;;6.53;1.77;;;9.00;99.90;;;;;;6131414;19;19937;-71
2022/11/03 04:54:54;;;;;;;10.70;1.55;;;8.90;99.90;;;;;;6130437;19;19914;-71
2022/11/03 04:56:58;;;;;;;7.80;1.40;;;9.20;99.90;;;;;;6130679;19;19922;-71
2022/11/03 04:59:02;;;;;;;11.98;1.92;;;9.10;99.90;;;;;;6127658;19;19918;-71
2022/11/03 05:01:11;;;;;;;10.77;1.70;;;9.10;99.90;;;;;;6127127;19;19918;-71
2022/11/03 05:03:18;;;;;;;8.13;1.63;;;9.20;99.90;;;;;;6127281;19;19927;-71
2022/11/03 05:05:27;;;;;;;5.05;1.38;;;9.00;99.90;;;;;;6127031;19;20005;-71
2022/11/03 05:07:36;;;;;;;4.45;1.80;;;9.00;99.90;;;;;;6127449;19;19962;-69
2022/11/03 05:09:42;;;;;;;6.90;1.10;;;9.00;99.90;;;;;;6129141;19;19919;-69
2022/11/03 05:11:48;;;;;;;10.70;1.95;;;9.20;99.90;;;;;;6130126;19;20364;-69
2022/11/03 05:13:53;;;;;;;8.40;1.85;;;9.20;99.90;;;;;;6127703;19;19915;-69
2022/11/03 05:16:03;;;;;;;12.90;1.88;;;9.20;99.90;;;;;;6128012;19;19918;-69
2022/11/03 05:18:17;;;;;;;5.93;1.33;;;8.10;99.90;;;;;;6127781;19;19942;-69
2022/11/03 05:20:27;;;;;;;;;;;9.30;99.90;;;;;;6130294;19;19922;-69
2022/11/03 05:22:35;;;;;;;5.20;1.65;;;9.20;99.90;;;;;;6127991;19;19911;-70
2022/11/03 05:24:41;;;;;;;5.53;2.08;;;8.90;99.90;;;;;;6127351;19;19922;-70
2022/11/03 05:26:46;;;;;;;7.55;1.27;;;9.10;99.90;;;;;;6129871;19;20332;-70
2022/11/03 05:28:54;;;;;;;7.22;1.20;;;8.80;99.90;;;;;;6130253;19;19919;-70
2022/11/03 05:30:58;;;;;;;6.28;1.30;;;9.00;99.90;;;;;;6127310;19;20356;-69
2022/11/03 05:33:02;;;;;;;7.97;1.33;;;9.50;99.90;;;;;;6124234;19;19910;-70
2022/11/03 05:35:19;;;;;;;7.35;1.40;;;9.20;99.90;;;;;;6129694;19;19941;-69
2022/11/03 05:37:30;;;;;;;10.32;1.58;;;9.00;99.90;;;;;;6126858;19;19924;-69
2022/11/03 05:39:38;;;;;;;9.30;1.77;;;9.30;99.90;;;;;;6127353;19;19978;-69
2022/11/03 05:41:44;;;;;;;6.38;2.25;;;9.30;99.90;;;;;;6125865;19;20276;-70
2022/11/03 05:43:57;;;;;;;5.47;1.42;;;9.30;99.90;;;;;;6128489;19;20347;-69
2022/11/03 05:46:04;;;;;;;10.07;2.60;;;8.90;99.90;;;;;;6129577;19;20241;-70
2022/11/03 05:48:17;;;;;;;7.55;1.20;;;9.00;99.90;;;;;;6127198;19;19938;-70
2022/11/03 05:50:23;;;;;;;1.83;0.90;;;9.00;99.90;;;;;;6126818;19;19915;-70
2022/11/03 05:52:29;;;;;;;6.78;1.20;;;9.20;99.90;;;;;;6128763;19;19925;-69
2022/11/03 05:54:36;;;;;;;6.45;2.03;;;9.40;99.90;;;;;;6127961;19;19919;-70
2022/11/03 05:56:40;;;;;;;5.30;1.20;;;9.00;99.90;;;;;;6129501;19;19911;-69
2022/11/03 05:58:47;;;;;;;5.35;1.38;;;9.50;99.90;;;;;;6126910;19;19921;-70
2022/11/03 06:00:51;;;;;;;3.08;1.05;;;9.00;99.90;;;;;;6127779;19;19986;-70
2022/11/03 06:02:56;;;;;;;8.40;1.40;;;9.50;99.90;;;;;;6128907;19;19925;-70
2022/11/03 06:05:00;;;;;;;8.13;1.33;;;9.10;99.90;;;;;;6126113;19;20328;-69
2022/11/03 06:07:13;;;;;;;5.05;1.42;;;9.00;99.90;;;;;;6126672;19;20267;-70
2022/11/03 06:09:21;;;;;;;6.35;1.13;;;9.00;99.90;;;;;;6128120;19;19921;-70
2022/11/03 06:11:29;;;;;;;10.18;1.77;;;9.50;99.90;;;;;;6126233;19;19910;-69
2022/11/03 06:13:36;;;;;;;8.68;1.35;;;9.00;99.90;;;;;;6126367;19;19923;-70
2022/11/03 06:15:45;;;;;;;8.32;1.30;;;9.20;99.90;;;;;;6125900;19;19926;-69
2022/11/03 06:17:50;;;;;;;6.28;1.60;;;8.90;99.90;;;;;;6127716;19;19925;-69
2022/11/03 06:19:56;;;;;;;5.93;1.02;;;9.30;99.90;;;;;;6128677;19;19911;-70
2022/11/03 06:22:04;;;;;;;8.05;1.60;;;8.90;99.90;;;;;;6127441;19;19918;-69
2022/11/03 06:24:12;;;;;;;11.43;1.90;;;9.10;99.90;;;;;;6125462;19;19919;-69
2022/11/03 06:26:20;;;;;;;7.35;1.50;;;8.80;99.90;;;;;;6125600;19;20328;-70
2022/11/03 06:28:28;;;;;;;7.65;1.30;;;9.00;99.90;;;;;;6127796;19;19919;-69
2022/11/03 06:30:34;;;;;;;8.00;1.35;;;9.20;99.90;;;;;;6125461;19;20252;-70
2022/11/03 06:32:41;;;;;;;3.53;1.63;;;9.10;99.90;;;;;;6125203;19;19914;-69
2022/11/03 06:34:47;;;;;;;7.28;1.60;;;9.30;99.90;;;;;;6126618;19;19982;-69
2022/11/03 06:36:51;;;;;;;6.00;1.50;;;9.50;99.90;;;;;;6127564;19;20339;-69
2022/11/03 06:38:57;;;;;;;6.45;1.10;;;9.40;99.90;;;;;;6125327;19;19926;-70
2022/11/03 06:41:01;;;;;;;8.27;1.85;;;;;;;;;;6124892;19;19937;-69
2022/11/03 06:43:24;;;;;;;7.38;1.38;;;9.10;99.90;;;;;;6123489;19;19911;-69
2022/11/03 06:45:28;;;;;;;5.45;1.65;;;9.00;99.90;;;;;;6128498;19;19938;-69
2022/11/03 06:47:32;;;;;;;5.40;1.30;;;9.40;99.90;;;;;;6130823;19;20392;-69
2022/11/03 06:49:39;;;;;;;5.13;1.40;;;9.30;99.90;;;;;;6131351;19;20276;-69
2022/11/03 06:51:43;;;;;;;6.68;1.20;;;;;;;;;;6128554;19;20026;-69
2022/11/03 06:53:47;;;;;;;6.15;1.33;;;9.10;99.90;;;;;;6130751;19;20023;-80
2022/11/03 06:55:51;;;;;;;6.85;1.30;;;9.20;99.90;;;;;;6136095;19;20340;-84
2022/11/03 06:58:00;;;;;;;9.00;1.25;;;9.10;99.90;;;;;;6130503;19;19910;-75
2022/11/03 07:00:09;;;;;;;6.63;1.90;;;9.40;99.90;;;;;;6134341;19;19919;-78
2022/11/03 07:02:42;;;;;;;8.88;1.40;;;9.30;99.90;;;;;;6129715;19;19911;-78
2022/11/03 07:04:48;;;;;;;6.68;1.55;;;9.30;99.90;;;;;;6128062;19;19923;-74
2022/11/03 07:06:52;;;;;;;3.53;1.02;;;8.90;99.90;;;;;;6130271;19;19926;-74
2022/11/03 07:08:58;;;;;;;4.68;1.20;;;10.00;99.90;;;;;;6132241;19;19923;-74
2022/11/03 07:11:05;;;;;;;12.23;1.38;;;9.00;99.90;;;;;;6129696;19;19919;-74
2022/11/03 07:13:15;;;;;;;6.53;1.50;;;8.90;99.90;;;;;;6130275;19;19915;-74
2022/11/03 07:15:26;;;;;;;7.32;2.25;;;9.60;99.90;;;;;;6131068;19;19915;-74
2022/11/03 07:17:30;;;;;;;4.65;0.93;;;9.30;99.90;;;;;;6129150;19;19918;-71
2022/11/03 07:19:38;;;;;;;7.28;1.73;;;9.60;99.90;;;;;;6130272;19;19919;-70
2022/11/03 07:21:47;;;;;;;6.65;1.52;;;9.40;99.90;;;;;;6131598;19;19925;-70
2022/11/03 07:23:53;;;;;;;7.85;1.60;;;9.30;99.90;;;;;;6130929;19;19974;-70
2022/11/03 07:26:02;;;;;;;8.35;1.70;;;9.90;99.90;;;;;;6132344;19;20301;-70
2022/11/03 07:28:06;;;;;;;3.58;1.05;;;9.70;99.90;;;;;;6129828;19;20339;-70
2022/11/03 07:30:19;;;;;;;4.93;1.10;;;9.80;99.90;;;;;;6129703;19;19918;-71
2022/11/03 07:32:26;;;;;;;6.32;2.25;;;9.70;99.90;;;;;;6129853;19;19929;-71
2022/11/03 07:34:34;;;;;;;5.72;1.25;;;9.90;99.90;;;;;;6129478;19;19915;-70
2022/11/03 07:36:38;;;;;;;8.02;1.27;;;;;;;;;;6129557;19;19927;-71
2022/11/03 07:38:46;;;;;;;8.00;1.75;;;9.30;99.90;;;;;;6129972;19;19938;-71
2022/11/03 07:40:50;;;;;;;7.82;1.45;;;9.70;99.90;;;;;;6129715;19;20344;-71
2022/11/03 07:42:59;;;;;;;10.55;2.25;;;9.60;99.90;;;;;;6127612;19;19934;-70
2022/11/03 07:45:03;;;;;;;7.38;1.63;;;9.60;99.90;;;;;;6130085;19;19925;-71
2022/11/03 07:47:12;;;;;;;5.57;1.40;;;9.90;99.90;;;;;;6129436;19;20340;-70
2022/11/03 07:49:26;;;;;;;9.90;1.50;;;9.70;99.90;;;;;;6131035;19;19923;-71
2022/11/03 07:51:32;;;;;;;8.65;1.42;;;10.40;99.90;;;;;;6127864;19;19931;-71
2022/11/03 07:53:41;;;;;;;4.63;1.42;;;10.00;99.90;;;;;;6131979;19;19919;-70
2022/11/03 07:55:48;;;;;;;;;;;10.00;99.90;;;;;;6130153;19;19919;-70
2022/11/03 07:57:52;;;;;;;6.05;2.00;;;10.80;99.90;;;;;;6128614;19;19919;-71
2022/11/03 08:00:03;;;;;;;7.07;1.45;;;10.20;99.90;;;;;;6127023;19;19934;-71
2022/11/03 08:02:26;;;;;;;11.95;1.85;;;9.90;99.90;;;;;;6128165;19;19917;-71
2022/11/03 08:04:33;;;;;;;7.18;1.48;;;10.60;99.90;;;;;;6127419;19;19958;-71
2022/11/03 08:06:37;;;;;;;5.20;1.45;;;;;;;;;;6128882;19;19921;-71
2022/11/03 08:08:41;;;;;;;7.38;1.70;;;10.50;99.90;;;;;;6129131;19;19907;-71
2022/11/03 08:10:44;;;;;;;10.90;1.60;;;9.90;99.90;;;;;;6129345;19;19958;-71
2022/11/03 08:12:51;;;;;;;4.82;1.73;;;10.20;99.90;;;;;;6128839;19;19919;-70
2022/11/03 08:14:55;;;;;;;8.13;1.63;;;10.40;99.90;;;;;;6129462;19;20038;-71
2022/11/03 08:16:59;;;;;;;4.65;1.42;;;;;;;;;;6128852;19;19921;-70
2022/11/03 08:19:03;;;;;;;6.35;1.30;;;;;;;;;;6128809;19;19918;-71
2022/11/03 08:21:07;;;;;;;8.20;1.88;;;10.90;99.90;;;;;;6128980;19;19915;-72
2022/11/03 08:23:11;;;;;;;6.65;1.50;;;10.30;99.90;;;;;;6127262;19;19910;-71
2022/11/03 08:25:16;;;;;;;9.75;1.60;;;10.80;99.90;;;;;;6128556;19;19922;-70
2022/11/03 08:27:21;;;;;;;8.50;1.98;;;;;;;;;;6128691;19;20256;-71
2022/11/03 08:29:27;;;;;;;6.95;1.50;;;10.40;99.90;;;;;;6128290;19;19925;-70
2022/11/03 08:31:31;;;;;;;3.42;1.20;;;10.90;99.90;;;;;;6128945;19;19934;-71
2022/11/03 08:33:36;;;;;;;8.05;1.73;;;10.30;99.90;;;;;;6128862;19;20334;-70
2022/11/03 08:35:40;;;;;;;8.65;1.83;;;;;;;;;;6128315;19;19914;-70
2022/11/03 08:37:44;;;;;;;5.47;1.58;;;;;;;;;;6128489;19;19919;-71
2022/11/03 08:39:48;;;;;;;9.93;2.47;;;;;;;;;;6128117;19;19941;-70
2022/11/03 08:41:52;;;;;;;6.88;1.90;;;11.10;99.90;;;;;;6127836;19;19956;-70
2022/11/03 08:43:56;;;;;;;4.60;1.38;;;;;;;;;;6128605;19;19914;-70
2022/11/03 08:46:03;;;;;;;4.97;1.02;;;11.00;99.90;;;;;;6128587;19;19914;-70
2022/11/03 08:48:07;;;;;;;9.23;1.60;;;10.90;99.90;;;;;;6128343;19;19918;-70
2022/11/03 08:50:12;;;;;;;8.20;1.55;;;11.20;99.90;;;;;;6128143;19;20251;-71
2022/11/03 08:52:16;;;;;;;8.70;1.20;;;11.20;99.90;;;;;;6130666;19;20295;-71
2022/11/03 08:54:20;;;;;;;13.05;2.00;;;10.90;99.90;;;;;;6128010;19;20356;-70
2022/11/03 08:56:23;;;;;;;5.30;1.45;;;10.70;99.90;;;;;;6127966;19;20360;-70
2022/11/03 08:58:27;;;;;;;7.88;2.03;;;11.30;99.90;;;;;;6128070;19;19914;-69
2022/11/03 09:00:31;;;;;;;6.78;1.50;;;11.00;99.90;;;;;;6128193;19;20366;-69
2022/11/03 09:02:37;;;;;;;6.25;1.55;;;10.80;99.90;;;;;;6126922;19;20371;-70
2022/11/03 09:04:41;;;;;;;7.28;1.30;;;10.90;99.90;;;;;;6125871;19;19918;-69
2022/11/03 09:06:45;;;;;;;9.55;1.70;;;10.90;99.90;;;;;;6127671;19;20275;-70
2022/11/03 09:08:49;;;;;;;6.03;1.50;;;11.00;99.90;;;;;;6126106;19;19917;-70
2022/11/03 09:10:53;;;;;;;6.15;1.70;;;;;;;;;;6127718;19;19921;-70
2022/11/03 09:12:57;;;;;;;7.93;2.00;;;;;;;;;;6127342;19;19911;-70
2022/11/03 09:15:01;;;;;;;7.90;1.52;;;11.20;99.90;;;;;;6127584;19;19911;-70
2022/11/03 09:17:05;;;;;;;7.75;1.20;;;11.00;99.90;;;;;;6127294;19;19918;-70
2022/11/03 09:19:12;;;;;;;9.23;2.13;;;11.50;99.90;;;;;;6127377;19;19915;-70
2022/11/03 09:21:16;;;;;;;5.68;1.50;;;;;;;;;;6127421;19;19922;-70
2022/11/03 09:23:20;;;;;;;7.85;1.83;;;11.20;99.90;;;;;;6125647;19;19918;-70
2022/11/03 09:25:25;;;;;;;6.05;1.55;;;;;;;;;;6126634;19;19914;-70
2022/11/03 09:27:29;;;;;;;13.07;2.92;;;11.20;99.90;;;;;;6127059;19;19934;-70
2022/11/03 09:29:33;;;;;;;7.90;1.70;;;11.30;99.90;;;;;;6127824;19;19934;-71
2022/11/03 09:31:37;;;;;;;6.47;1.70;;;11.80;99.90;;;;;;6127292;19;20336;-71
2022/11/03 09:33:41;;;;;;;3.83;1.05;;;12.20;99.90;;;;;;6126651;19;19924;-72
2022/11/03 09:35:47;;;;;;;7.35;1.38;;;11.60;99.90;;;;;;6127075;19;19911;-71
2022/11/03 09:37:51;;;;;;;7.70;1.70;;;12.20;99.90;;;;;;6125215;19;19921;-71
2022/11/03 09:39:55;;;;;;;7.50;2.00;;;11.70;99.90;;;;;;6126638;19;19934;-71
2022/11/03 09:42:02;;;;;;;4.10;1.30;;;11.60;99.90;;;;;;6126969;19;19937;-71
2022/11/03 09:44:06;;;;;;;4.82;1.45;;;;;;;;;;6126021;19;20274;-71
2022/11/03 09:46:10;;;;;;;5.78;1.30;;;11.70;99.90;;;;;;6126950;19;20284;-71
2022/11/03 09:48:15;;;;;;;7.72;1.67;;;11.90;99.90;;;;;;6126997;19;19919;-71
2022/11/03 09:50:21;;;;;;;4.90;1.27;;;11.60;99.90;;;;;;6128348;19;20018;-72
2022/11/03 09:52:28;;;;;;;6.45;1.83;;;12.20;99.90;;;;;;6126601;19;19938;-71
2022/11/03 09:54:32;;;;;;;7.60;1.52;;;12.20;99.90;;;;;;6126271;19;20352;-71
2022/11/03 09:56:38;;;;;;;6.95;1.90;;;11.70;99.90;;;;;;6126897;19;19941;-71
2022/11/03 09:58:43;;;;;;;7.82;1.70;;;11.60;99.90;;;;;;6126563;19;20271;-71
2022/11/03 10:00:47;;;;;;;7.85;2.22;;;12.60;99.90;;;;;;6126654;19;19915;-71
2022/11/03 10:02:52;;;;;;;3.25;0.95;;;11.70;99.90;;;;;;6125895;19;19938;-71
2022/11/03 10:04:59;;;;;;;5.68;1.40;;;12.20;99.90;;;;;;6124844;19;19919;-71
2022/11/03 10:07:03;;;;;;;9.05;1.77;;;12.40;99.90;;;;;;6126227;19;19919;-71
2022/11/03 10:09:16;;;;;;;8.57;1.95;;;12.20;99.90;;;;;;6126730;19;20345;-71
2022/11/03 10:11:20;;;;;;;6.57;1.60;;;11.70;99.90;;;;;;6126242;19;19919;-71
2022/11/03 10:13:30;;;;;;;7.82;1.30;;;12.10;99.90;;;;;;6126210;19;19915;-71
2022/11/03 10:15:34;;;;;;;7.60;1.48;;;12.60;99.90;;;;;;6126138;19;20475;-71
2022/11/03 10:17:38;;;;;;;3.05;1.40;;;12.20;99.90;;;;;;6125817;19;19915;-71
2022/11/03 10:19:42;;;;;;;5.20;1.35;;;12.10;99.90;;;;;;6129598;19;20252;-71
2022/11/03 10:21:46;;;;;;;4.80;1.33;;;12.90;99.90;;;;;;6131336;19;19921;-70
2022/11/03 10:23:51;;;;;;;7.10;1.50;;;12.50;99.90;;;;;;6129624;19;19921;-70
2022/11/03 10:26:09;;;;;;;6.28;1.50;;;12.60;99.90;;;;;;6130275;19;19933;-71
2022/11/03 10:28:18;;;;;;;6.78;1.40;;;12.20;99.90;;;;;;6131069;19;19938;-71
2022/11/03 10:30:22;;;;;;;6.47;1.40;;;12.60;99.90;;;;;;6131631;19;19918;-70
2022/11/03 10:32:35;;;;;;;6.18;1.70;;;13.10;99.90;;;;;;6131532;19;19919;-71
2022/11/03 10:34:40;;;;;;;5.22;1.30;;;12.40;99.90;;;;;;6130982;19;19915;-71
2022/11/03 10:36:44;;;;;;;4.38;1.10;;;12.50;99.90;;;;;;6128524;19;19922;-71
2022/11/03 10:38:49;;;;;;;7.18;1.60;;;13.60;99.90;;;;;;6131147;19;19922;-71
2022/11/03 10:40:53;;;;;;;7.20;1.63;;;13.00;99.90;;;;;;6134633;19;19926;-71
2022/11/03 10:43:02;;;;;;;4.95;1.52;;;13.50;99.90;;;;;;6130143;19;19978;-71
2022/11/03 10:45:16;;;;;;;8.05;1.50;;;13.40;99.90;;;;;;6131349;19;19918;-71
2022/11/03 10:47:26;;;;;;;6.78;1.23;;;13.40;99.90;;;;;;6131582;19;19922;-71
2022/11/03 10:49:31;;;;;;;3.08;1.35;;;13.40;99.90;;;;;;6133703;19;19918;-71
2022/11/03 10:51:36;;;;;;;6.43;1.73;;;13.40;99.90;;;;;;6131372;19;20247;-71
2022/11/03 10:53:41;;;;;;;7.55;1.83;;;13.80;99.90;;;;;;6131163;19;19917;-71
2022/11/03 10:55:45;;;;;;;6.60;1.75;;;13.00;99.90;;;;;;6131179;19;19929;-71
2022/11/03 10:57:50;;;;;;;6.80;1.80;;;13.60;99.90;;;;;;6130652;19;19925;-71
2022/11/03 10:59:57;;;;;;;5.75;1.15;;;13.70;99.90;;;;;;6130667;19;19938;-72
2022/11/03 11:02:02;;;;;;;6.63;1.50;;;13.80;99.90;;;;;;6131547;19;20260;-71
2022/11/03 11:04:06;;;;;;;6.18;1.67;;;13.50;99.90;;;;;;6128675;19;20609;-71
2022/11/03 11:06:20;;;;;;;7.32;1.30;;;13.30;99.90;;;;;;6130890;19;19919;-71
2022/11/03 11:08:25;;;;;;;10.52;1.65;;;13.20;99.90;;;;;;6130645;19;20265;-71
2022/11/03 11:10:31;;;;;;;4.03;1.17;;;13.60;99.90;;;;;;6130384;19;19918;-71
2022/11/03 11:12:35;;;;;;;4.30;1.25;;;13.50;99.90;;;;;;6130760;19;19918;-71
2022/11/03 11:14:40;;;;;;;7.60;1.35;;;13.80;99.90;;;;;;6130071;19;20370;-71
2022/11/03 11:16:55;;;;;;;10.13;1.60;;;14.20;99.90;;;;;;6129995;19;20287;-71
2022/11/03 11:19:03;;;;;;;3.15;1.23;;;13.40;99.90;;;;;;6129928;19;19915;-71
2022/11/03 11:21:48;;;;;;;8.85;1.38;;;13.50;99.90;;;;;;6129729;19;19923;-70
2022/11/03 11:23:52;;;;;;;10.23;1.33;;;13.20;99.90;;;;;;6128241;19;19923;-71
2022/11/03 11:26:16;;;;;;;6.38;1.40;;;13.70;99.90;;;;;;6130792;19;19919;-70